createdAt,value
2018-09-03T00:00:33.151Z,22.70
2018-09-03T00:03:00.361Z,21.97
2018-09-03T00:05:27.760Z,22.70
2018-09-03T00:07:55.068Z,22.07
2018-09-03T00:10:22.366Z,23.87
2018-09-03T00:12:49.618Z,24.70
2018-09-03T00:15:16.889Z,22.77
2018-09-03T00:17:44.109Z,23.30
2018-09-03T00:20:11.427Z,23.83
2018-09-03T00:22:38.653Z,26.00
2018-09-03T00:25:06.401Z,25.00
2018-09-03T00:27:33.651Z,28.00
2018-09-03T00:30:00.879Z,25.00
2018-09-03T00:32:33.771Z,26.57
2018-09-03T00:35:06.749Z,25.30
2018-09-03T00:37:39.699Z,25.87
2018-09-03T00:40:12.683Z,23.40
2018-09-03T00:42:45.445Z,25.50
2018-09-03T00:45:18.322Z,26.53
2018-09-03T00:47:45.631Z,24.30
2018-09-03T00:50:12.819Z,24.60
2018-09-03T00:52:40.083Z,26.17
2018-09-03T00:55:07.383Z,25.10
2018-09-03T00:57:34.673Z,27.43
2018-09-03T01:00:02.160Z,25.80
2018-09-03T01:02:29.472Z,27.97
2018-09-03T01:04:56.639Z,26.03
2018-09-03T01:07:23.962Z,23.80
2018-09-03T01:09:51.243Z,24.77
2018-09-03T01:12:18.480Z,24.47
2018-09-03T01:14:45.747Z,24.20
2018-09-03T01:17:12.978Z,23.10
2018-09-03T01:19:40.246Z,24.73
2018-09-03T01:22:07.477Z,22.73
2018-09-03T01:24:34.757Z,24.50
2018-09-03T01:27:02.005Z,25.03
2018-09-03T01:29:29.296Z,24.80
2018-09-03T01:31:56.602Z,24.70
2018-09-03T01:34:24.583Z,25.37
2018-09-03T01:36:51.875Z,25.80
2018-09-03T01:39:19.171Z,25.70
2018-09-03T01:41:46.450Z,26.70
2018-09-03T01:44:13.712Z,27.23
2018-09-03T01:46:40.952Z,24.63
2018-09-03T01:49:08.154Z,26.73
2018-09-03T01:51:35.407Z,24.13
2018-09-03T01:54:02.666Z,24.93
2018-09-03T01:56:29.882Z,27.27
2018-09-03T01:58:57.132Z,28.40
2018-09-03T02:01:24.473Z,25.63
2018-09-03T02:03:51.757Z,27.07
2018-09-03T02:06:19.164Z,28.80
2018-09-03T02:08:46.313Z,25.80
2018-09-03T02:11:13.694Z,28.57
2018-09-03T02:13:41.017Z,25.17
2018-09-03T02:16:08.384Z,28.23
2018-09-03T02:18:35.644Z,26.90
2018-09-03T02:21:02.971Z,28.57
2018-09-03T02:23:30.181Z,24.47
2018-09-03T02:25:57.452Z,25.20
2018-09-03T02:28:24.734Z,25.23
2018-09-03T02:30:51.887Z,24.03
2018-09-03T02:33:19.142Z,25.67
2018-09-03T02:35:46.421Z,24.03
2018-09-03T02:38:13.695Z,23.80
2018-09-03T02:40:40.970Z,25.47
2018-09-03T02:43:08.253Z,23.77
2018-09-03T02:45:35.514Z,23.63
2018-09-03T02:48:02.767Z,26.30
2018-09-03T02:50:30.048Z,25.60
2018-09-03T02:52:57.211Z,25.10
2018-09-03T02:55:24.518Z,24.47
2018-09-03T02:57:51.752Z,26.43
2018-09-03T03:00:21.914Z,25.43
2018-09-03T03:02:49.126Z,23.57
2018-09-03T03:05:16.390Z,24.27
2018-09-03T03:07:43.658Z,25.50
2018-09-03T03:10:10.949Z,26.23
2018-09-03T03:12:38.124Z,24.87
2018-09-03T03:15:05.392Z,23.70
2018-09-03T03:17:32.704Z,21.70
2018-09-03T03:19:59.985Z,21.67
2018-09-03T03:22:27.241Z,22.97
2018-09-03T03:24:54.513Z,22.80
2018-09-03T03:27:21.725Z,22.93
2018-09-03T03:29:48.981Z,24.40
2018-09-03T03:32:16.304Z,26.80
2018-09-03T03:34:43.529Z,24.17
2018-09-03T03:37:10.794Z,23.67
2018-09-03T03:39:38.005Z,21.67
2018-09-03T03:42:05.613Z,20.73
2018-09-03T03:44:32.841Z,19.97
2018-09-03T03:47:00.131Z,20.37
2018-09-03T03:49:27.407Z,20.77
2018-09-03T03:51:54.625Z,17.50
2018-09-03T03:54:21.937Z,19.77
2018-09-03T03:56:49.184Z,18.17
2018-09-03T03:59:16.409Z,18.60
2018-09-03T04:01:43.641Z,21.63
2018-09-03T04:04:10.958Z,21.30
2018-09-03T04:06:38.246Z,20.73
2018-09-03T04:09:07.108Z,23.63
2018-09-03T04:11:34.407Z,23.30
2018-09-03T04:14:01.755Z,21.10
2018-09-03T04:16:28.970Z,20.13
2018-09-03T04:18:56.274Z,20.23
2018-09-03T04:21:23.512Z,20.53
2018-09-03T04:23:50.789Z,18.30
2018-09-03T04:26:18.006Z,20.00
2018-09-03T04:28:45.373Z,19.53
2018-09-03T04:33:52.228Z,21.13
2018-09-03T04:36:19.535Z,20.07
2018-09-03T04:38:46.970Z,21.03
2018-09-03T04:41:14.337Z,20.10
2018-09-03T04:43:41.722Z,20.80
2018-09-03T04:46:09.167Z,20.97
2018-09-03T04:48:36.434Z,22.70
2018-09-03T04:51:03.830Z,22.50
2018-09-03T04:53:31.062Z,23.63
2018-09-03T04:55:58.350Z,21.00
2018-09-03T04:58:25.674Z,22.10
2018-09-03T05:00:52.948Z,57.73
2018-09-03T05:03:20.155Z,28.70
2018-09-03T05:05:47.466Z,21.43
2018-09-03T05:08:14.731Z,21.70
2018-09-03T05:10:42.059Z,20.00
2018-09-03T05:13:09.339Z,21.97
2018-09-03T05:15:36.648Z,21.20
2018-09-03T05:18:04.079Z,20.93
2018-09-03T05:20:31.425Z,20.03
2018-09-03T05:22:58.806Z,20.23
2018-09-03T05:25:26.238Z,21.13
2018-09-03T05:27:53.487Z,19.70
2018-09-03T05:30:21.151Z,20.07
2018-09-03T05:32:48.483Z,18.30
2018-09-03T05:35:15.742Z,19.37
2018-09-03T05:37:42.990Z,18.70
2018-09-03T05:40:10.482Z,18.80
2018-09-03T05:42:37.917Z,19.33
2018-09-03T05:45:05.531Z,18.83
2018-09-03T05:47:32.767Z,20.00
2018-09-03T05:49:59.977Z,18.50
2018-09-03T05:52:27.388Z,21.23
2018-09-03T05:54:54.693Z,18.43
2018-09-03T05:57:22.086Z,20.80
2018-09-03T05:59:49.348Z,17.47
2018-09-03T06:02:16.621Z,20.10
2018-09-03T06:04:44.042Z,18.97
2018-09-03T06:07:11.244Z,21.10
2018-09-03T06:09:38.512Z,20.00
2018-09-03T06:12:05.657Z,20.73
2018-09-03T06:14:32.850Z,21.93
2018-09-03T06:17:00.250Z,19.57
2018-09-03T06:19:27.531Z,20.30
2018-09-03T06:21:54.956Z,18.30
2018-09-03T06:24:22.314Z,18.67
2018-09-03T06:26:49.676Z,19.60
2018-09-03T06:29:17.055Z,18.00
2018-09-03T06:31:44.312Z,20.00
2018-09-03T06:34:11.577Z,20.17
2018-09-03T06:36:38.887Z,18.53
2018-09-03T06:39:07.302Z,17.33
2018-09-03T06:41:34.589Z,18.80
2018-09-03T06:44:02.052Z,19.43
2018-09-03T06:46:29.364Z,19.20
2018-09-03T06:48:56.629Z,18.30
2018-09-03T06:51:23.992Z,16.13
2018-09-03T06:53:51.309Z,19.23
2018-09-03T06:56:18.630Z,18.80
2018-09-03T06:58:45.929Z,19.83
2018-09-03T07:01:13.360Z,19.40
2018-09-03T07:03:41.359Z,18.20
2018-09-03T07:06:08.928Z,18.60
2018-09-03T07:08:36.897Z,19.70
2018-09-03T07:11:04.386Z,17.43
2018-09-03T07:13:31.619Z,17.17
2018-09-03T07:15:58.890Z,18.60
2018-09-03T07:18:26.192Z,19.80
2018-09-03T07:20:53.418Z,18.80
2018-09-03T07:23:20.748Z,17.60
2018-09-03T07:25:47.988Z,18.73
2018-09-03T07:28:15.276Z,18.70
2018-09-03T07:30:42.615Z,18.50
2018-09-03T07:33:09.911Z,18.60
2018-09-03T07:35:37.189Z,16.60
2018-09-03T07:38:04.560Z,17.50
2018-09-03T07:40:31.822Z,14.87
2018-09-03T07:42:59.268Z,15.90
2018-09-03T07:45:26.596Z,16.23
2018-09-03T07:47:53.875Z,16.90
2018-09-03T07:50:21.168Z,16.50
2018-09-03T07:52:48.446Z,16.40
2018-09-03T07:55:15.812Z,18.07
2018-09-03T07:57:43.083Z,18.10
2018-09-03T08:00:10.520Z,17.60
2018-09-03T08:02:37.898Z,17.77
2018-09-03T08:05:05.582Z,16.50
2018-09-03T08:07:32.903Z,16.50
2018-09-03T08:10:00.271Z,14.47
2018-09-03T08:12:27.468Z,17.40
2018-09-03T08:14:54.754Z,15.40
2018-09-03T08:17:22.004Z,15.37
2018-09-03T08:19:49.328Z,15.20
2018-09-03T08:22:16.647Z,14.97
2018-09-03T08:24:43.945Z,15.40
2018-09-03T08:27:11.306Z,15.40
2018-09-03T08:29:38.640Z,12.17
2018-09-03T08:32:05.944Z,12.90
2018-09-03T08:34:33.248Z,13.17
2018-09-03T08:37:00.564Z,13.23
2018-09-03T08:39:27.836Z,13.50
2018-09-03T08:41:55.150Z,13.63
2018-09-03T08:44:22.411Z,15.10
2018-09-03T08:46:49.659Z,12.57
2018-09-03T08:49:17.077Z,13.20
2018-09-03T08:51:44.355Z,10.13
2018-09-03T08:54:11.676Z,12.70
2018-09-03T08:56:39.055Z,13.60
2018-09-03T08:59:06.425Z,13.77
2018-09-03T09:01:33.763Z,12.63
2018-09-03T09:04:01.227Z,13.77
2018-09-03T09:06:28.532Z,15.80
2018-09-03T09:08:55.861Z,13.97
2018-09-03T09:11:23.196Z,14.87
2018-09-03T09:13:50.496Z,14.53
2018-09-03T09:16:17.811Z,15.83
2018-09-03T09:18:45.153Z,15.10
2018-09-03T09:21:12.442Z,15.87
2018-09-03T09:23:39.757Z,13.40
2018-09-03T09:26:07.022Z,15.47
2018-09-03T09:28:34.316Z,15.60
2018-09-03T09:31:01.628Z,13.60
2018-09-03T09:33:28.839Z,15.27
2018-09-03T09:35:56.195Z,15.93
2018-09-03T09:38:23.471Z,13.80
2018-09-03T09:40:50.849Z,14.60
2018-09-03T09:43:18.275Z,15.37
2018-09-03T09:45:45.571Z,14.13
2018-09-03T09:48:12.976Z,15.60
2018-09-03T09:50:40.984Z,18.17
2018-09-03T09:53:08.196Z,17.67
2018-09-03T09:55:35.565Z,15.20
2018-09-03T09:58:02.831Z,14.43
2018-09-03T10:00:35.871Z,14.17
2018-09-03T10:03:03.080Z,14.30
2018-09-03T10:05:30.465Z,14.37
2018-09-03T10:07:57.766Z,14.10
2018-09-03T10:10:25.041Z,13.50
2018-09-03T10:12:52.361Z,13.60
2018-09-03T10:15:19.669Z,14.00
2018-09-03T10:17:46.893Z,13.60
2018-09-03T10:20:14.190Z,13.27
2018-09-03T10:22:41.467Z,13.03
2018-09-03T10:25:08.809Z,14.70
2018-09-03T10:27:36.087Z,14.07
2018-09-03T10:30:03.504Z,13.90
2018-09-03T10:32:31.521Z,12.50
2018-09-03T10:34:58.847Z,13.83
2018-09-03T10:37:26.222Z,14.70
2018-09-03T10:39:53.553Z,12.40
2018-09-03T10:42:24.828Z,14.07
2018-09-03T10:44:52.231Z,12.20
2018-09-03T10:47:19.684Z,11.60
2018-09-03T10:49:46.947Z,11.57
2018-09-03T10:52:14.297Z,11.50
2018-09-03T10:54:41.629Z,12.97
2018-09-03T10:57:08.974Z,13.47
2018-09-03T10:59:36.269Z,13.07
2018-09-03T11:02:03.588Z,10.63
2018-09-03T11:04:30.869Z,12.10
2018-09-03T11:06:58.099Z,11.03
2018-09-03T11:09:25.435Z,9.03
2018-09-03T11:11:52.779Z,9.83
2018-09-03T11:14:20.005Z,9.37
2018-09-03T11:16:47.315Z,8.40
2018-09-03T11:19:14.994Z,9.17
2018-09-03T11:21:42.342Z,7.60
2018-09-03T11:24:09.603Z,7.57
2018-09-03T11:26:36.895Z,7.20
2018-09-03T11:29:04.200Z,7.50
2018-09-03T11:31:31.578Z,7.30
2018-09-03T11:33:58.792Z,7.77
2018-09-03T11:36:26.064Z,6.40
2018-09-03T11:38:53.350Z,6.30
2018-09-03T11:41:20.586Z,6.70
2018-09-03T11:43:47.844Z,7.80
2018-09-03T11:46:15.150Z,7.00
2018-09-03T11:48:42.372Z,7.70
2018-09-03T11:51:09.636Z,8.00
2018-09-03T11:53:37.056Z,7.67
2018-09-03T11:56:04.370Z,8.07
2018-09-03T11:58:31.755Z,7.30
2018-09-03T12:01:00.002Z,7.60
2018-09-03T12:03:27.353Z,8.53
2018-09-03T12:05:55.348Z,8.00
2018-09-03T12:08:22.690Z,8.10
2018-09-03T12:10:49.967Z,6.93
2018-09-03T12:13:17.236Z,6.70
2018-09-03T12:15:49.074Z,7.40
2018-09-03T12:18:16.577Z,8.23
2018-09-03T12:20:43.843Z,6.40
2018-09-03T12:23:11.048Z,6.40
2018-09-03T12:25:38.948Z,7.20
2018-09-03T12:28:06.212Z,7.10
2018-09-03T12:30:33.481Z,6.80
2018-09-03T12:33:00.761Z,7.93
2018-09-03T12:35:28.120Z,6.97
2018-09-03T12:37:55.432Z,6.30
2018-09-03T12:40:22.687Z,6.67
2018-09-03T12:42:49.988Z,6.73
2018-09-03T12:45:21.429Z,6.47
2018-09-03T12:47:48.680Z,6.50
2018-09-03T12:50:15.938Z,6.73
2018-09-03T12:52:43.243Z,5.53
2018-09-03T12:55:10.488Z,7.10
2018-09-03T12:57:37.711Z,5.80
2018-09-03T13:00:05.677Z,6.13
2018-09-03T13:02:39.414Z,5.63
2018-09-03T13:04:59.590Z,5.60
2018-09-03T13:10:23.065Z,6.07
2018-09-03T13:12:50.357Z,6.40
2018-09-03T13:15:17.576Z,6.63
2018-09-03T13:17:44.917Z,5.70
2018-09-03T13:20:12.445Z,6.80
2018-09-03T13:22:39.773Z,6.97
2018-09-03T13:25:07.214Z,7.30
2018-09-03T13:27:34.457Z,6.90
2018-09-03T13:30:01.814Z,4.97
2018-09-03T13:32:29.270Z,5.17
2018-09-03T13:34:56.582Z,5.10
2018-09-03T13:37:23.888Z,4.90
2018-09-03T13:39:51.189Z,5.27
2018-09-03T13:42:18.528Z,5.97
2018-09-03T13:44:45.930Z,6.10
2018-09-03T13:47:13.250Z,5.87
2018-09-03T13:49:40.654Z,5.03
2018-09-03T13:52:07.933Z,4.70
2018-09-03T13:54:35.181Z,4.67
2018-09-03T13:57:02.485Z,4.37
2018-09-03T13:59:29.785Z,5.43
2018-09-03T14:01:57.241Z,4.90
2018-09-03T14:04:25.208Z,5.20
2018-09-03T14:06:52.612Z,4.87
2018-09-03T14:09:19.988Z,4.90
2018-09-03T14:11:47.261Z,4.97
2018-09-03T14:14:14.663Z,5.10
2018-09-03T14:16:41.930Z,4.23
2018-09-03T14:19:09.263Z,3.77
2018-09-03T14:21:36.644Z,4.40
2018-09-03T14:24:03.978Z,4.63
2018-09-03T14:26:31.250Z,4.20
2018-09-03T14:28:58.563Z,4.53
2018-09-03T14:31:25.910Z,3.13
2018-09-03T14:33:53.514Z,3.80
2018-09-03T14:36:20.883Z,3.47
2018-09-03T14:38:48.152Z,3.40
2018-09-03T14:41:15.454Z,3.60
2018-09-03T14:43:42.932Z,3.40
2018-09-03T14:46:10.190Z,3.03
2018-09-03T14:48:37.605Z,3.33
2018-09-03T14:51:05.007Z,3.40
2018-09-03T14:53:32.241Z,3.37
2018-09-03T14:55:59.648Z,3.23
2018-09-03T14:58:27.017Z,2.90
2018-09-03T15:00:54.300Z,2.50
2018-09-03T15:03:21.607Z,2.90
2018-09-03T15:05:48.863Z,3.23
2018-09-03T15:08:16.223Z,2.87
2018-09-03T15:10:43.755Z,3.40
2018-09-03T15:13:11.061Z,2.97
2018-09-03T15:15:38.335Z,3.17
2018-09-03T15:18:05.647Z,3.93
2018-09-03T15:20:32.920Z,4.00
2018-09-03T15:23:00.233Z,3.40
2018-09-03T15:25:27.765Z,3.20
2018-09-03T15:27:55.110Z,3.27
2018-09-03T15:30:22.526Z,2.83
2018-09-03T15:32:49.783Z,3.83
2018-09-03T15:35:17.126Z,5.80
2018-09-03T15:37:45.223Z,4.47
2018-09-03T15:40:12.625Z,6.83
2018-09-03T15:42:39.978Z,3.37
2018-09-03T15:45:07.453Z,3.90
2018-09-03T15:47:34.870Z,2.90
2018-09-03T15:50:02.144Z,3.90
2018-09-03T15:52:29.472Z,3.40
2018-09-03T15:54:56.785Z,3.67
2018-09-03T15:57:24.345Z,3.27
2018-09-03T15:59:51.639Z,3.50
2018-09-03T16:02:18.907Z,3.20
2018-09-03T16:04:46.264Z,3.00
2018-09-03T16:07:13.486Z,3.03
2018-09-03T16:09:40.755Z,3.30
2018-09-03T16:12:08.163Z,2.80
2018-09-03T16:14:35.441Z,3.10
2018-09-03T16:17:02.739Z,3.37
2018-09-03T16:19:30.047Z,3.20
2018-09-03T16:21:57.411Z,2.17
2018-09-03T16:24:24.615Z,2.90
2018-09-03T16:26:51.887Z,3.00
2018-09-03T16:29:19.194Z,2.67
2018-09-03T16:31:46.502Z,3.03
2018-09-03T16:34:13.830Z,2.60
2018-09-03T16:36:41.137Z,2.57
2018-09-03T16:40:32.975Z,2.73
2018-09-03T16:43:00.207Z,3.03
2018-09-03T16:45:27.480Z,3.00
2018-09-03T16:47:54.760Z,2.60
2018-09-03T16:50:22.114Z,2.70
2018-09-03T16:52:49.376Z,2.50
2018-09-03T16:55:16.760Z,3.10
2018-09-03T16:57:43.964Z,2.70
2018-09-03T17:00:11.308Z,2.60
2018-09-03T17:02:38.695Z,2.70
2018-09-03T17:05:06.240Z,2.23
2018-09-03T17:07:33.594Z,2.90
2018-09-03T17:10:00.762Z,3.77
2018-09-03T17:12:28.145Z,3.20
2018-09-03T17:16:20.022Z,3.13
2018-09-03T17:18:47.250Z,3.43
2018-09-03T17:21:14.580Z,3.00
2018-09-03T17:23:42.084Z,3.20
2018-09-03T17:26:09.379Z,2.73
2018-09-03T17:28:42.487Z,2.90
2018-09-03T17:31:09.781Z,3.30
2018-09-03T17:33:37.101Z,2.63
2018-09-03T17:36:04.449Z,3.33
2018-09-03T17:38:31.768Z,3.60
2018-09-03T17:40:59.075Z,3.47
2018-09-03T17:43:26.372Z,2.97
2018-09-03T17:45:53.654Z,3.70
2018-09-03T17:48:20.856Z,3.77
2018-09-03T17:50:48.284Z,3.50
2018-09-03T17:53:15.620Z,3.87
2018-09-03T17:55:43.072Z,3.73
2018-09-03T17:58:10.295Z,3.90
2018-09-03T18:00:37.598Z,4.30
2018-09-03T18:03:05.517Z,3.90
2018-09-03T18:05:32.793Z,4.10
2018-09-03T18:08:00.248Z,4.70
2018-09-03T18:10:27.540Z,4.00
2018-09-03T18:12:54.885Z,4.03
2018-09-03T18:15:22.164Z,3.60
2018-09-03T18:17:49.606Z,3.90
2018-09-03T18:20:16.894Z,3.60
2018-09-03T18:22:44.202Z,4.23
2018-09-03T18:25:11.457Z,4.10
2018-09-03T18:27:38.736Z,4.67
2018-09-03T18:30:06.147Z,4.50
2018-09-03T18:32:34.485Z,4.10
2018-09-03T18:35:01.747Z,4.23
2018-09-03T18:37:29.040Z,4.10
2018-09-03T18:39:56.325Z,3.80
2018-09-03T18:42:23.665Z,4.23
2018-09-03T18:44:51.065Z,4.70
2018-09-03T18:47:18.603Z,3.70
2018-09-03T18:49:45.894Z,4.30
2018-09-03T18:52:13.374Z,5.30
2018-09-03T18:54:40.759Z,8.60
2018-09-03T18:57:08.069Z,5.40
2018-09-03T18:59:35.358Z,4.67
2018-09-03T19:02:02.649Z,4.90
2018-09-03T19:04:29.960Z,4.30
2018-09-03T19:06:57.203Z,4.77
2018-09-03T19:09:24.560Z,3.90
2018-09-03T19:11:51.837Z,4.70
2018-09-03T19:14:19.205Z,4.83
2018-09-03T19:16:46.634Z,4.60
2018-09-03T19:19:13.989Z,3.97
2018-09-03T19:21:41.448Z,4.37
2018-09-03T19:24:08.990Z,4.40
2018-09-03T19:26:36.243Z,4.20
2018-09-03T19:29:03.640Z,3.90
2018-09-03T19:31:31.039Z,5.73
2018-09-03T19:33:59.561Z,4.83
2018-09-03T19:36:27.080Z,4.93
2018-09-03T19:38:54.320Z,4.50
2018-09-03T19:41:21.716Z,5.20
2018-09-03T19:43:48.997Z,5.00
2018-09-03T19:46:16.460Z,5.40
2018-09-03T19:48:44.845Z,5.70
2018-09-03T19:51:12.232Z,5.80
2018-09-03T19:53:39.544Z,5.03
2018-09-03T19:56:06.921Z,5.60
2018-09-03T19:58:34.233Z,5.10
2018-09-03T20:01:01.487Z,5.00
2018-09-03T20:03:28.798Z,5.73
2018-09-03T20:05:57.815Z,5.70
2018-09-03T20:08:25.364Z,5.13
2018-09-03T20:10:52.570Z,5.97
2018-09-03T20:13:19.842Z,4.90
2018-09-03T20:15:47.202Z,5.10
2018-09-03T20:18:14.488Z,5.13
2018-09-03T20:20:41.782Z,5.17
2018-09-03T20:23:09.095Z,5.40
2018-09-03T20:25:36.439Z,5.13
2018-09-03T20:28:03.719Z,5.13
2018-09-03T20:30:31.052Z,4.80
2018-09-03T20:32:58.279Z,4.70
2018-09-03T20:38:07.965Z,5.37
2018-09-03T20:40:35.308Z,5.27
2018-09-03T20:43:02.672Z,5.50
2018-09-03T20:45:29.978Z,5.10
2018-09-03T20:47:57.359Z,5.00
2018-09-03T20:50:24.693Z,4.83
2018-09-03T20:52:51.966Z,4.50
2018-09-03T20:55:19.336Z,5.13
2018-09-03T20:57:46.648Z,5.80
2018-09-03T21:00:13.940Z,6.00
2018-09-03T21:02:41.247Z,5.17
2018-09-03T21:05:10.001Z,5.40
2018-09-03T21:07:37.254Z,5.40
2018-09-03T21:10:05.348Z,5.53
2018-09-03T21:12:32.663Z,5.90
2018-09-03T21:14:59.910Z,6.37
2018-09-03T21:17:27.262Z,5.60
2018-09-03T21:19:54.547Z,5.33
2018-09-03T21:22:21.921Z,5.53
2018-09-03T21:24:49.296Z,5.37
2018-09-03T21:27:16.517Z,5.30
2018-09-03T21:29:43.845Z,5.23
2018-09-03T21:32:11.263Z,5.63
2018-09-03T21:34:38.544Z,5.60
2018-09-03T21:37:05.851Z,6.50
2018-09-03T21:39:33.133Z,5.00
2018-09-03T21:42:00.563Z,6.13
2018-09-03T21:44:27.845Z,5.30
2018-09-03T21:46:55.223Z,5.90
2018-09-03T21:49:22.515Z,5.57
2018-09-03T21:51:49.782Z,4.90
2018-09-03T21:54:17.110Z,5.47
2018-09-03T21:56:44.452Z,5.73
2018-09-03T21:59:11.721Z,6.13
2018-09-03T22:01:38.964Z,5.30
2018-09-03T22:04:06.245Z,5.93
2018-09-03T22:06:33.557Z,6.80
2018-09-03T22:09:01.311Z,5.77
2018-09-03T22:11:28.757Z,6.10
2018-09-03T22:13:56.063Z,6.73
2018-09-03T22:16:23.326Z,5.57
2018-09-03T22:18:50.710Z,6.13
2018-09-03T22:21:18.059Z,6.27
2018-09-03T22:23:45.327Z,6.23
2018-09-03T22:26:12.554Z,6.20
2018-09-03T22:28:39.848Z,6.30
2018-09-03T22:31:07.267Z,6.37
2018-09-03T22:33:34.499Z,6.27
2018-09-03T22:36:01.861Z,6.47
2018-09-03T22:38:29.156Z,6.23
2018-09-03T22:40:56.472Z,5.77
2018-09-03T22:43:23.715Z,6.27
2018-09-03T22:45:51.042Z,6.57
2018-09-03T22:48:18.415Z,6.47
2018-09-03T22:50:45.790Z,6.37
2018-09-03T22:54:48.709Z,6.37
2018-09-03T22:57:16.079Z,5.90
2018-09-03T22:59:43.373Z,5.90
2018-09-03T23:02:10.634Z,5.80
2018-09-03T23:04:37.968Z,7.20
2018-09-03T23:07:05.318Z,7.27
2018-09-03T23:09:32.676Z,6.80
2018-09-03T23:13:04.030Z,7.50
2018-09-03T23:15:31.367Z,6.80
2018-09-03T23:17:58.631Z,6.40
2018-09-03T23:20:25.871Z,5.53
2018-09-03T23:22:53.159Z,6.00
2018-09-03T23:25:20.467Z,5.33
2018-09-03T23:27:47.879Z,6.37
2018-09-03T23:30:15.187Z,6.23
2018-09-03T23:32:42.530Z,6.47
2018-09-03T23:35:09.850Z,6.00
2018-09-03T23:37:37.789Z,6.30
2018-09-03T23:40:05.731Z,5.70
2018-09-03T23:42:33.016Z,7.67
2018-09-03T23:45:00.328Z,6.73
2018-09-03T23:47:27.656Z,6.37
2018-09-03T23:49:55.023Z,5.83
2018-09-03T23:52:22.301Z,6.43
2018-09-03T23:54:49.639Z,6.97
2018-09-03T23:57:16.897Z,6.70
2018-09-03T23:59:44.244Z,7.23
